Durham, New Hampshire
Current Conditions -  °F | °C
As of 4:15 AM on Friday 24 Oct 2014 (Local Time) from KPSM Reporting Station
Light Rain Light Rain  
Wind Chill: 42°   Ceiling: 1100
Heat Index: 48°   Visibility: 10mi
Dew Point: 46°   Wind: 15mph
Humidity: 93%   Direction: 340°NNW
Pressure: 29.66"   Gusts: NA
Location:  43.13°N, 70.92°W
Report Text: KPSM 240815Z 34013KT 10SM -RA OVC011 09/08 A2966 RMK AO2A
Loading
Personal Weather Stations






























Interactive Weather Map New forecast layout! Learn more

10-Day Weather Forecast

Advertisements
Track Severe Weather on mobile